Time;durP1;ratioP1;P1;durP2;ratioP2;P2;SDS_P1;SDS_P2;PMS_P1;PMS_P2;Temp;Humidity;BMP_temperature;BMP_pressure;BME280_temperature;BME280_humidity;BME280_pressure;Samples;Min_cycle;Max_cycle;Signal;HPM_P1;HPM_P2
2023/08/29 00:00:27;;;;;;;15.37;7.73;;;;;;;;;;5041683;28;89707;-59
2023/08/29 00:03:06;;;;;;;10.23;6.57;;;;;;;;;;5042314;27;87398;-58
2023/08/29 00:05:35;;;;;;;14.77;7.23;;;;;;;;;;5042124;28;88787;-58
2023/08/29 00:08:03;;;;;;;12.07;7.57;;;;;;;;;;5041845;27;88006;-58
2023/08/29 00:10:32;;;;;;;11.60;7.17;;;;;;;;;;5042133;28;88518;-58
2023/08/29 00:13:04;;;;;;;11.67;6.73;;;;;;;;;;5041308;27;89024;-58
2023/08/29 00:15:32;;;;;;;11.47;6.93;;;;;;;;;;5041182;27;88826;-58
2023/08/29 00:18:02;;;;;;;13.83;7.13;;;;;;;;;;5041898;27;87677;-58
2023/08/29 00:20:32;;;;;;;9.37;5.97;;;;;;;;;;5041628;28;88577;-58
2023/08/29 00:23:01;;;;;;;8.20;5.57;;;;;;;;;;5041575;27;89485;-58
2023/08/29 00:25:30;;;;;;;11.23;6.60;;;;;;;;;;5040938;27;87672;-58
2023/08/29 00:28:00;;;;;;;11.27;6.77;;;;;;;;;;5041598;28;87724;-58
2023/08/29 00:30:33;;;;;;;10.77;6.10;;;;;;;;;;5041416;28;88762;-59
2023/08/29 00:33:02;;;;;;;10.20;5.23;;;;;;;;;;5040483;27;89049;-58
2023/08/29 00:35:32;;;;;;;9.93;5.83;;;;;;;;;;5040984;27;88725;-58
2023/08/29 00:38:00;;;;;;;8.73;5.73;;;;;;;;;;5041562;27;87773;-58
2023/08/29 00:40:31;;;;;;;7.70;4.87;;;;;;;;;;5041602;28;89907;-58
2023/08/29 00:42:59;;;;;;;7.30;4.60;;;;;;;;;;5040637;28;88045;-58
2023/08/29 00:45:31;;;;;;;6.63;4.60;;;;;;;;;;5040799;27;88534;-59
2023/08/29 00:48:01;;;;;;;7.83;4.40;;;;;;;;;;5041428;28;87530;-58
2023/08/29 00:50:29;;;;;;;7.37;4.30;;;;;;;;;;5041127;27;88528;-59
2023/08/29 00:53:00;;;;;;;7.77;5.53;;;;;;;;;;5041198;27;87648;-58
2023/08/29 00:55:31;;;;;;;10.90;6.00;;;;;;;;;;5041540;28;89017;-58
2023/08/29 00:58:00;;;;;;;7.57;4.67;;;;;;;;;;5040842;27;87987;-58
2023/08/29 01:00:30;;;;;;;9.43;4.73;;;;;;;;;;5040666;27;89627;-58
2023/08/29 01:02:59;;;;;;;7.80;5.03;;;;;;;;;;5040366;27;89147;-59
2023/08/29 01:05:29;;;;;;;8.23;5.33;;;;;;;;;;5041086;28;88831;-59
2023/08/29 01:07:59;;;;;;;10.33;6.07;;;;;;;;;;5041291;27;87315;-58
2023/08/29 01:10:33;;;;;;;7.37;4.33;;;;;;;;;;5041043;27;87450;-58
2023/08/29 01:13:06;;;;;;;7.73;5.20;;;;;;;;;;5040238;27;87747;-58
2023/08/29 01:15:38;;;;;;;12.07;5.30;;;;;;;;;;5041588;27;87713;-58
2023/08/29 01:18:09;;;;;;;6.53;4.53;;;;;;;;;;5041689;28;87701;-58
2023/08/29 01:20:39;;;;;;;10.97;5.47;;;;;;;;;;5040339;28;88017;-58
2023/08/29 01:23:08;;;;;;;4.57;3.70;;;;;;;;;;5040079;28;88764;-58
2023/08/29 01:25:44;;;;;;;9.23;4.60;;;;;;;;;;5041091;28;89180;-58
2023/08/29 01:28:14;;;;;;;7.90;5.50;;;;;;;;;;5041212;28;87585;-58
2023/08/29 01:30:46;;;;;;;8.57;5.13;;;;;;;;;;5040706;28;88507;-58
2023/08/29 01:33:15;;;;;;;8.67;4.90;;;;;;;;;;5040433;27;89485;-58
2023/08/29 01:35:45;;;;;;;8.47;4.73;;;;;;;;;;5040371;27;87761;-59
2023/08/29 01:38:17;;;;;;;7.67;4.73;;;;;;;;;;5040807;28;87454;-58
2023/08/29 01:40:47;;;;;;;5.87;3.57;;;;;;;;;;5040381;28;89706;-58
2023/08/29 01:43:16;;;;;;;7.37;4.20;;;;;;;;;;5040112;28;87916;-58
2023/08/29 01:45:45;;;;;;;6.07;4.20;;;;;;;;;;5040210;28;88906;-58
2023/08/29 01:48:15;;;;;;;6.33;3.83;;;;;;;;;;5038757;27;87869;-58
2023/08/29 01:50:43;;;;;;;4.83;3.30;;;;;;;;;;5040151;27;88551;-58
2023/08/29 01:53:14;;;;;;;6.53;4.10;;;;;;;;;;5041303;27;88838;-59
2023/08/29 01:55:43;;;;;;;6.90;3.63;;;;;;;;;;5061007;27;87832;-58
2023/08/29 01:58:12;;;;;;;6.07;4.17;;;;;;;;;;5060603;27;87615;-59
2023/08/29 02:00:41;;;;;;;5.00;2.90;;;;;;;;;;5060389;27;89620;-58
2023/08/29 02:03:11;;;;;;;4.93;2.80;;;;;;;;;;5060517;27;89124;-59
2023/08/29 02:05:41;;;;;;;4.40;2.80;;;;;;;;;;5060352;27;87581;-58
2023/08/29 02:08:11;;;;;;;4.53;3.00;;;;;;;;;;5060049;27;87622;-58
2023/08/29 02:10:39;;;;;;;5.13;3.40;;;;;;;;;;5059203;27;88362;-59
2023/08/29 02:13:09;;;;;;;5.13;3.43;;;;;;;;;;5059848;27;88991;-59
2023/08/29 02:15:37;;;;;;;7.00;3.43;;;;;;;;;;5060537;27;89709;-58
2023/08/29 02:18:08;;;;;;;3.43;2.50;;;;;;;;;;5060150;27;87562;-58
2023/08/29 02:20:38;;;;;;;5.77;2.70;;;;;;;;;;5059953;27;89724;-58
2023/08/29 02:23:07;;;;;;;3.33;2.40;;;;;;;;;;5060114;27;89293;-58
2023/08/29 02:25:35;;;;;;;3.90;2.53;;;;;;;;;;5060199;27;87515;-59
2023/08/29 02:28:04;;;;;;;2.77;2.40;;;;;;;;;;5059031;27;87500;-58
2023/08/29 02:30:36;;;;;;;5.63;2.73;;;;;;;;;;5060474;27;89640;-59
2023/08/29 02:33:05;;;;;;;3.37;2.57;;;;;;;;;;5060337;27;89084;-58
2023/08/29 02:35:35;;;;;;;4.23;2.10;;;;;;;;;;5060413;27;87305;-59
2023/08/29 02:38:04;;;;;;;4.00;2.87;;;;;;;;;;5060146;27;88232;-58
2023/08/29 02:40:36;;;;;;;3.23;1.80;;;;;;;;;;5049604;27;89748;-59
2023/08/29 02:43:04;;;;;;;3.87;2.27;;;;;;;;;;5037060;28;87863;-59
2023/08/29 02:45:33;;;;;;;3.07;1.83;;;;;;;;;;5037713;27;87818;-59
2023/08/29 02:48:02;;;;;;;4.37;2.33;;;;;;;;;;5037431;28;87417;-59
2023/08/29 02:50:32;;;;;;;2.50;1.83;;;;;;;;;;5038020;27;89606;-59
2023/08/29 02:53:03;;;;;;;2.43;1.90;;;;;;;;;;5036726;28;88040;-59
2023/08/29 02:55:32;;;;;;;3.70;1.73;;;;;;;;;;5036300;28;89114;-58
2023/08/29 02:58:00;;;;;;;3.20;1.97;;;;;;;;;;5036626;27;87653;-58
2023/08/29 03:00:29;;;;;;;3.13;2.40;;;;;;;;;;5041333;27;89716;-58
2023/08/29 03:02:58;;;;;;;4.27;2.87;;;;;;;;;;5060098;27;89959;-58
2023/08/29 03:05:26;;;;;;;5.77;2.50;;;;;;;;;;5059940;27;89388;-58
2023/08/29 03:07:55;;;;;;;3.80;2.43;;;;;;;;;;5060276;27;87677;-58
2023/08/29 03:10:25;;;;;;;3.77;2.63;;;;;;;;;;5059286;27;88541;-59
2023/08/29 03:12:53;;;;;;;3.57;2.07;;;;;;;;;;5060662;27;88684;-58
2023/08/29 03:15:23;;;;;;;6.10;2.93;;;;;;;;;;5060533;27;87759;-58
2023/08/29 03:17:51;;;;;;;4.97;2.77;;;;;;;;;;5060834;27;87715;-59
2023/08/29 03:20:20;;;;;;;4.07;3.00;;;;;;;;;;5060412;27;89709;-58
2023/08/29 03:22:50;;;;;;;6.07;2.67;;;;;;;;;;5060506;27;88083;-58
2023/08/29 03:25:20;;;;;;;7.03;2.60;;;;;;;;;;5060149;27;87768;-59
2023/08/29 03:27:50;;;;;;;3.07;2.23;;;;;;;;;;5059930;27;88256;-59
2023/08/29 03:30:19;;;;;;;5.53;3.07;;;;;;;;;;5060371;27;89500;-58
2023/08/29 03:32:50;;;;;;;6.20;2.90;;;;;;;;;;5059787;27;89066;-58
2023/08/29 03:35:18;;;;;;;4.13;2.80;;;;;;;;;;5059584;27;88706;-58
2023/08/29 03:37:48;;;;;;;4.37;2.77;;;;;;;;;;5060458;27;87305;-58
2023/08/29 03:40:16;;;;;;;3.90;2.67;;;;;;;;;;5056801;27;89251;-58
2023/08/29 03:42:44;;;;;;;4.63;2.40;;;;;;;;;;5047946;27;89241;-58
2023/08/29 03:45:14;;;;;;;3.03;2.60;;;;;;;;;;5059657;27;90078;-59
2023/08/29 03:47:46;;;;;;;4.90;2.83;;;;;;;;;;5043606;27;87613;-58
2023/08/29 03:50:15;;;;;;;5.03;2.83;;;;;;;;;;5039224;27;89729;-58
2023/08/29 03:52:51;;;;;;;3.57;2.37;;;;;;;;;;5038483;27;90108;-58
2023/08/29 03:55:22;;;;;;;6.53;3.30;;;;;;;;;;5039465;28;89673;-59
2023/08/29 03:57:52;;;;;;;3.33;2.33;;;;;;;;;;5039413;27;87563;-58
2023/08/29 04:00:22;;;;;;;4.67;2.17;;;;;;;;;;5039259;27;89544;-58
2023/08/29 04:02:51;;;;;;;2.80;2.27;;;;;;;;;;5039481;27;88111;-59
2023/08/29 04:05:20;;;;;;;3.37;2.20;;;;;;;;;;5039192;28;88951;-58
2023/08/29 04:07:48;;;;;;;4.47;2.97;;;;;;;;;;5039412;28;87355;-59
2023/08/29 04:10:17;;;;;;;5.60;2.70;;;;;;;;;;5038543;27;88598;-58
2023/08/29 04:12:46;;;;;;;2.90;1.80;;;;;;;;;;5039458;27;89104;-58
2023/08/29 04:15:15;;;;;;;3.70;2.17;;;;;;;;;;5045023;27;87722;-58
2023/08/29 04:17:46;;;;;;;3.67;2.57;;;;;;;;;;5061883;27;87875;-58
2023/08/29 04:20:16;;;;;;;4.20;2.00;;;;;;;;;;5057358;27;88665;-58
2023/08/29 04:22:44;;;;;;;3.40;1.73;;;;;;;;;;5061566;27;88053;-58
2023/08/29 04:25:12;;;;;;;2.17;1.53;;;;;;;;;;5062469;27;88763;-58
2023/08/29 04:27:43;;;;;;;3.13;1.83;;;;;;;;;;5062740;27;87634;-58
2023/08/29 04:30:12;;;;;;;1.90;1.70;;;;;;;;;;5061479;27;89601;-58
2023/08/29 04:32:42;;;;;;;2.07;1.63;;;;;;;;;;5062006;27;89060;-59
2023/08/29 04:35:12;;;;;;;3.87;2.10;;;;;;;;;;5061810;27;88832;-58
2023/08/29 04:37:41;;;;;;;4.77;2.30;;;;;;;;;;5062341;27;87553;-58
2023/08/29 04:40:10;;;;;;;2.37;1.60;;;;;;;;;;5061702;27;89879;-58
2023/08/29 04:42:40;;;;;;;2.00;1.80;;;;;;;;;;5060662;27;90064;-58
2023/08/29 04:45:12;;;;;;;2.33;1.73;;;;;;;;;;5061063;27;89758;-58
2023/08/29 04:47:41;;;;;;;3.47;1.57;;;;;;;;;;5061444;27;87518;-58
2023/08/29 04:50:11;;;;;;;2.53;1.50;;;;;;;;;;5061143;27;89954;-58
2023/08/29 04:52:41;;;;;;;1.33;1.10;;;;;;;;;;5061492;27;88094;-58
2023/08/29 04:55:09;;;;;;;2.63;1.53;;;;;;;;;;5061828;27;88739;-58
2023/08/29 04:57:38;;;;;;;2.37;1.27;;;;;;;;;;5061004;27;87583;-58
2023/08/29 05:00:10;;;;;;;1.57;1.13;;;;;;;;;;5060878;27;87587;-58
2023/08/29 05:02:38;;;;;;;1.10;0.90;;;;;;;;;;5060912;27;87847;-58
2023/08/29 05:05:07;;;;;;;2.47;1.37;;;;;;;;;;5061221;27;88627;-59
2023/08/29 05:07:35;;;;;;;1.93;0.93;;;;;;;;;;5061691;27;87801;-59
2023/08/29 05:10:06;;;;;;;2.43;1.10;;;;;;;;;;5060640;27;89751;-58
2023/08/29 05:12:35;;;;;;;2.63;1.10;;;;;;;;;;5060757;27;88972;-58
2023/08/29 05:15:03;;;;;;;2.10;0.80;;;;;;;;;;5061014;27;89009;-58
2023/08/29 05:17:31;;;;;;;1.20;1.10;;;;;;;;;;5061648;27;88091;-59
2023/08/29 05:20:01;;;;;;;1.63;1.40;;;;;;;;;;5060759;27;89705;-59
2023/08/29 05:22:30;;;;;;;3.20;1.70;;;;;;;;;;5061789;27;89068;-58
2023/08/29 05:24:58;;;;;;;2.07;1.20;;;;;;;;;;5061461;27;87690;-59
2023/08/29 05:27:31;;;;;;;1.93;1.43;;;;;;;;;;5060986;27;87641;-59
2023/08/29 05:29:59;;;;;;;1.40;1.10;;;;;;;;;;5061495;27;89544;-58
2023/08/29 05:32:30;;;;;;;2.10;1.30;;;;;;;;;;5061068;27;89997;-59
2023/08/29 05:34:59;;;;;;;1.80;1.40;;;;;;;;;;5060839;27;88484;-59
2023/08/29 05:37:28;;;;;;;1.90;1.43;;;;;;;;;;5061075;27;87507;-58
2023/08/29 05:39:57;;;;;;;2.47;1.40;;;;;;;;;;5060727;27;88595;-58
2023/08/29 05:42:25;;;;;;;2.43;1.43;;;;;;;;;;5059534;27;89126;-58
2023/08/29 05:44:55;;;;;;;1.50;1.37;;;;;;;;;;5060543;27;87827;-58
2023/08/29 05:47:24;;;;;;;2.30;1.50;;;;;;;;;;5060771;27;87548;-58
2023/08/29 05:49:52;;;;;;;1.60;1.50;;;;;;;;;;5060129;27;88536;-58
2023/08/29 05:52:21;;;;;;;1.70;1.33;;;;;;;;;;5060059;27;88895;-58
2023/08/29 05:54:51;;;;;;;1.70;1.27;;;;;;;;;;5060739;27;88887;-58
2023/08/29 05:57:21;;;;;;;2.60;1.53;;;;;;;;;;5060737;27;88205;-58
2023/08/29 05:59:49;;;;;;;2.63;1.70;;;;;;;;;;5060529;27;89745;-58
2023/08/29 06:02:19;;;;;;;1.97;1.60;;;;;;;;;;5059900;27;88984;-58
2023/08/29 06:04:48;;;;;;;3.80;1.37;;;;;;;;;;5059882;27;88723;-59
2023/08/29 06:07:16;;;;;;;1.73;1.50;;;;;;;;;;5060876;27;87580;-58
2023/08/29 06:09:44;;;;;;;1.53;1.33;;;;;;;;;;5059833;27;89657;-58
2023/08/29 06:12:13;;;;;;;3.67;1.50;;;;;;;;;;5060145;27;88030;-58
2023/08/29 06:14:42;;;;;;;2.13;1.70;;;;;;;;;;5061292;27;87449;-58
2023/08/29 06:17:12;;;;;;;3.00;1.73;;;;;;;;;;5060191;27;87618;-58
2023/08/29 06:19:41;;;;;;;0.97;0.80;;;;;;;;;;5059929;27;88622;-58
2023/08/29 06:22:10;;;;;;;3.93;1.70;;;;;;;;;;5059598;27;88968;-58
2023/08/29 06:24:42;;;;;;;2.43;2.00;;;;;;;;;;5059842;27;89563;-58
2023/08/29 06:27:10;;;;;;;2.80;2.10;;;;;;;;;;5060980;27;87480;-58
2023/08/29 06:29:39;;;;;;;3.13;1.87;;;;;;;;;;5060809;27;89766;-58
2023/08/29 06:32:08;;;;;;;2.83;2.17;;;;;;;;;;5059442;27;87709;-58
2023/08/29 06:34:36;;;;;;;2.73;2.07;;;;;;;;;;5062930;27;87701;-58
2023/08/29 06:37:07;;;;;;;3.83;2.60;;;;;;;;;;5063295;27;88034;-58
2023/08/29 06:39:36;;;;;;;2.73;2.17;;;;;;;;;;5063749;27;89698;-58
2023/08/29 06:42:05;;;;;;;2.80;1.90;;;;;;;;;;5062622;27;89085;-58
2023/08/29 06:44:33;;;;;;;3.03;2.73;;;;;;;;;;5063760;27;88706;-58
2023/08/29 06:47:03;;;;;;;5.00;2.87;;;;;;;;;;5063446;27;87917;-58
2023/08/29 06:49:34;;;;;;;3.60;2.60;;;;;;;;;;5063027;27;88553;-58
2023/08/29 06:52:02;;;;;;;2.37;1.97;;;;;;;;;;5063419;27;89093;-58
2023/08/29 06:54:32;;;;;;;3.73;2.80;;;;;;;;;;5063912;27;88496;-58
2023/08/29 06:57:01;;;;;;;3.87;2.53;;;;;;;;;;5063589;27;87630;-58
2023/08/29 06:59:30;;;;;;;5.70;3.20;;;;;;;;;;5063450;27;88722;-58
2023/08/29 07:02:00;;;;;;;5.03;3.13;;;;;;;;;;5063454;27;88057;-58
2023/08/29 07:04:28;;;;;;;3.73;2.57;;;;;;;;;;5064048;27;87672;-58
2023/08/29 07:07:00;;;;;;;3.43;3.00;;;;;;;;;;5063815;27;87382;-58
2023/08/29 07:09:30;;;;;;;3.53;2.80;;;;;;;;;;5062779;27;89613;-58
2023/08/29 07:12:00;;;;;;;5.97;3.43;;;;;;;;;;5062579;27;90183;-58
2023/08/29 07:14:28;;;;;;;5.03;2.90;;;;;;;;;;5063698;27;88637;-58
2023/08/29 07:17:00;;;;;;;4.60;3.37;;;;;;;;;;5063406;27;88366;-58
2023/08/29 07:19:39;;;;;;;3.70;2.53;;;;;;;;;;5063028;27;89632;-58
2023/08/29 07:22:09;;;;;;;5.50;4.10;;;;;;;;;;5063041;27;89131;-58
2023/08/29 07:24:53;;;;;;;8.13;3.53;;;;;;;;;;5062477;27;87845;-58
2023/08/29 07:27:23;;;;;;;4.17;3.17;;;;;;;;;;5062808;27;87543;-58
2023/08/29 07:29:53;;;;;;;4.93;3.77;;;;;;;;;;5062529;27;88520;-58
2023/08/29 07:32:23;;;;;;;4.70;3.53;;;;;;;;;;5062385;27;89127;-58
2023/08/29 07:34:54;;;;;;;6.20;3.77;;;;;;;;;;5063084;27;89097;-58
2023/08/29 07:37:22;;;;;;;4.87;3.70;;;;;;;;;;5062700;27;88049;-58
2023/08/29 07:39:52;;;;;;;8.30;4.47;;;;;;;;;;5063201;27;89504;-58
2023/08/29 07:42:22;;;;;;;7.60;4.60;;;;;;;;;;5062474;27;88053;-58
2023/08/29 07:44:50;;;;;;;5.40;4.00;;;;;;;;;;5061124;27;87581;-58
2023/08/29 07:47:19;;;;;;;5.10;3.87;;;;;;;;;;5063432;27;87669;-58
2023/08/29 07:49:51;;;;;;;6.10;4.63;;;;;;;;;;5062842;27;88731;-58
2023/08/29 07:52:20;;;;;;;7.57;3.57;;;;;;;;;;5062720;27;87491;-58
2023/08/29 07:54:49;;;;;;;7.57;4.60;;;;;;;;;;5063099;27;89013;-58
2023/08/29 07:57:18;;;;;;;7.67;4.23;;;;;;;;;;5063490;27;87651;-58
2023/08/29 07:59:49;;;;;;;8.13;4.73;;;;;;;;;;5061360;27;88532;-58
2023/08/29 08:02:20;;;;;;;8.07;4.50;;;;;;;;;;5061147;27;90037;-58
2023/08/29 08:04:49;;;;;;;12.27;4.67;;;;;;;;;;5062928;27;89898;-58
2023/08/29 08:07:17;;;;;;;6.33;4.23;;;;;;;;;;5062188;27;87647;-58
2023/08/29 08:09:46;;;;;;;5.60;4.50;;;;;;;;;;5062301;27;89716;-58
2023/08/29 08:12:17;;;;;;;5.70;4.20;;;;;;;;;;5062193;27;89000;-58
2023/08/29 08:14:47;;;;;;;7.47;4.57;;;;;;;;;;5062419;27;88660;-58
2023/08/29 08:17:19;;;;;;;6.90;5.07;;;;;;;;;;5061863;27;87658;-58
2023/08/29 08:19:48;;;;;;;4.27;3.73;;;;;;;;;;5062326;27;88531;-58
2023/08/29 08:22:19;;;;;;;6.87;4.77;;;;;;;;;;5061563;27;88086;-58
2023/08/29 08:24:49;;;;;;;6.10;4.37;;;;;;;;;;5062605;27;87749;-58
2023/08/29 08:27:18;;;;;;;5.23;3.90;;;;;;;;;;5061177;27;87887;-58
2023/08/29 08:29:48;;;;;;;4.40;3.30;;;;;;;;;;5061472;27;89671;-58
2023/08/29 08:32:17;;;;;;;5.67;4.07;;;;;;;;;;5061796;27;89189;-58
2023/08/29 08:34:46;;;;;;;5.20;3.63;;;;;;;;;;5062228;27;88851;-58
2023/08/29 08:37:16;;;;;;;8.00;4.20;;;;;;;;;;5062477;27;87743;-58
2023/08/29 08:39:47;;;;;;;4.87;3.60;;;;;;;;;;5061309;27;87260;-58
2023/08/29 08:42:15;;;;;;;5.20;3.77;;;;;;;;;;5060537;27;88975;-58
2023/08/29 08:44:44;;;;;;;5.20;3.50;;;;;;;;;;5062272;27;87600;-58
2023/08/29 08:47:17;;;;;;;6.47;3.63;;;;;;;;;;5062642;27;87519;-58
2023/08/29 08:49:46;;;;;;;5.37;3.63;;;;;;;;;;5061766;27;88449;-58
2023/08/29 08:52:15;;;;;;;5.27;3.20;;;;;;;;;;5060902;27;89935;-58
2023/08/29 08:54:45;;;;;;;4.60;3.47;;;;;;;;;;5061647;27;89242;-58
2023/08/29 08:57:14;;;;;;;6.57;3.20;;;;;;;;;;5056393;27;87490;-58
2023/08/29 08:59:43;;;;;;;3.60;2.70;;;;;;;;;;5056556;27;88534;-58
2023/08/29 09:02:12;;;;;;;5.30;3.07;;;;;;;;;;5061214;27;88322;-58
2023/08/29 09:04:42;;;;;;;2.67;2.47;;;;;;;;;;5061630;27;87752;-58
2023/08/29 09:07:10;;;;;;;5.93;2.90;;;;;;;;;;5062244;27;87674;-58
2023/08/29 09:09:39;;;;;;;3.93;2.67;;;;;;;;;;5061632;27;87448;-58
2023/08/29 09:12:07;;;;;;;3.33;2.60;;;;;;;;;;5061262;27;89139;-58
2023/08/29 09:14:36;;;;;;;4.63;2.90;;;;;;;;;;5060506;27;88772;-58
2023/08/29 09:17:09;;;;;;;2.50;2.17;;;;;;;;;;5058701;27;88670;-58
2023/08/29 09:19:40;;;;;;;3.67;2.73;;;;;;;;;;5058968;27;89743;-58
2023/08/29 09:22:15;;;;;;;4.07;2.30;;;;;;;;;;5059070;27;88647;-58
2023/08/29 09:24:43;;;;;;;6.30;2.83;;;;;;;;;;5058553;27;87427;-58
2023/08/29 09:27:13;;;;;;;4.20;2.63;;;;;;;;;;5057749;27;87654;-58
2023/08/29 09:29:46;;;;;;;4.20;2.80;;;;;;;;;;5057898;27;88282;-58
2023/08/29 09:32:15;;;;;;;6.23;2.80;;;;;;;;;;5057560;27;89015;-58
2023/08/29 09:34:43;;;;;;;2.23;1.77;;;;;;;;;;5057952;27;88806;-59
2023/08/29 09:37:29;;;;;;;2.60;2.07;;;;;;;;;;5058373;27;87643;-58
2023/08/29 09:40:09;;;;;;;3.50;3.00;;;;;;;;;;5051603;27;88961;-59
2023/08/29 09:43:06;;;;;;;5.20;2.73;;;;;;;;;;5040709;27;90202;-58
2023/08/29 09:45:55;;;;;;;4.87;3.37;;;;;;;;;;5040310;27;87915;-58
2023/08/29 09:51:23;;;;;;;5.17;2.97;;;;;;;;;;5029865;27;88363;-58
2023/08/29 09:54:00;;;;;;;3.07;2.43;;;;;;;;;;5037744;28;88046;-58
2023/08/29 09:56:29;;;;;;;4.97;2.87;;;;;;;;;;5037308;27;87717;-58
2023/08/29 09:58:57;;;;;;;18.13;3.23;;;;;;;;;;5036501;28;87305;-58
2023/08/29 10:01:26;;;;;;;3.10;2.33;;;;;;;;;;5037086;28;89187;-58
2023/08/29 10:03:54;;;;;;;5.00;3.23;;;;;;;;;;5037831;28;88138;-58
2023/08/29 10:06:23;;;;;;;5.57;2.93;;;;;;;;;;5037446;27;88778;-59
2023/08/29 10:08:55;;;;;;;4.33;3.17;;;;;;;;;;5036740;27;87902;-58
2023/08/29 10:11:25;;;;;;;4.80;2.80;;;;;;;;;;5037313;28;88441;-58
2023/08/29 10:13:59;;;;;;;5.20;3.07;;;;;;;;;;5037234;28;89054;-58
2023/08/29 10:16:31;;;;;;;4.63;2.87;;;;;;;;;;5037024;28;87969;-58
2023/08/29 10:18:59;;;;;;;3.97;2.90;;;;;;;;;;5037395;28;88096;-58
2023/08/29 10:21:28;;;;;;;4.53;2.93;;;;;;;;;;5037296;28;89455;-58
2023/08/29 10:23:57;;;;;;;4.30;2.63;;;;;;;;;;5037427;28;89145;-58
2023/08/29 10:26:26;;;;;;;3.50;2.87;;;;;;;;;;5037988;28;87936;-58
2023/08/29 10:28:56;;;;;;;4.30;2.77;;;;;;;;;;5037389;28;87624;-58
2023/08/29 10:31:26;;;;;;;6.43;3.40;;;;;;;;;;5037210;27;88506;-58
2023/08/29 10:33:57;;;;;;;4.43;2.93;;;;;;;;;;5037010;27;90986;-58
2023/08/29 10:36:27;;;;;;;3.07;2.67;;;;;;;;;;5037662;28;89741;-58
2023/08/29 10:38:55;;;;;;;3.93;2.83;;;;;;;;;;5036273;27;87624;-58
2023/08/29 10:41:23;;;;;;;3.17;2.53;;;;;;;;;;5036384;28;89719;-58
2023/08/29 10:43:55;;;;;;;5.77;2.87;;;;;;;;;;5036438;27;87892;-58
2023/08/29 10:46:26;;;;;;;3.33;2.60;;;;;;;;;;5036545;27;87789;-59
2023/08/29 10:48:55;;;;;;;3.40;2.43;;;;;;;;;;5037077;28;87536;-58
2023/08/29 10:51:28;;;;;;;4.63;2.17;;;;;;;;;;5036693;28;89673;-59
2023/08/29 10:54:05;;;;;;;3.83;2.47;;;;;;;;;;5036664;28;89035;-59
2023/08/29 10:56:40;;;;;;;5.23;3.17;;;;;;;;;;5037187;28;88980;-59
2023/08/29 10:59:10;;;;;;;3.83;2.40;;;;;;;;;;5035835;28;87958;-58
2023/08/29 11:01:39;;;;;;;6.40;2.13;;;;;;;;;;5036026;28;89976;-58
2023/08/29 11:04:13;;;;;;;2.83;1.70;;;;;;;;;;5036853;27;88038;-58
2023/08/29 11:06:51;;;;;;;3.50;2.00;;;;;;;;;;5035649;28;88114;-59
2023/08/29 11:09:21;;;;;;;3.97;2.77;;;;;;;;;;5036492;28;87636;-59
2023/08/29 11:12:12;;;;;;;7.33;2.17;;;;;;;;;;5036416;28;88573;-62
2023/08/29 11:14:57;;;;;;;3.33;2.63;;;;;;;;;;5036614;28;87988;-62
2023/08/29 11:17:25;;;;;;;4.07;2.20;;;;;;;;;;5036706;28;87987;-63
2023/08/29 11:19:55;;;;;;;3.27;2.23;;;;;;;;;;5037769;27;87563;-62
2023/08/29 11:22:25;;;;;;;4.93;2.00;;;;;;;;;;5039226;28;90048;-62
2023/08/29 11:24:55;;;;;;;3.03;1.83;;;;;;;;;;5039278;27;90069;-62
2023/08/29 11:27:24;;;;;;;2.10;1.83;;;;;;;;;;5039901;27;88899;-62
2023/08/29 11:29:59;;;;;;;3.83;2.53;;;;;;;;;;5039974;27;87647;-63
2023/08/29 11:32:51;;;;;;;2.33;2.13;;;;;;;;;;5039937;27;91151;-62
2023/08/29 11:35:20;;;;;;;3.03;2.03;;;;;;;;;;5045373;27;88094;-62
2023/08/29 11:37:48;;;;;;;3.87;2.27;;;;;;;;;;5062263;27;88790;-62
2023/08/29 11:40:20;;;;;;;2.27;1.80;;;;;;;;;;5062685;27;87547;-62
2023/08/29 11:42:55;;;;;;;4.60;2.43;;;;;;;;;;5061206;27;89701;-62
2023/08/29 11:45:44;;;;;;;5.27;2.40;;;;;;;;;;5060930;27;87426;-62
2023/08/29 11:48:22;;;;;;;6.90;2.57;;;;;;;;;;5062818;27;88820;-62
2023/08/29 11:50:52;;;;;;;7.00;3.10;;;;;;;;;;5062158;27;88075;-62
2023/08/29 11:53:24;;;;;;;6.50;3.13;;;;;;;;;;5062980;27;88596;-62
2023/08/29 11:55:53;;;;;;;8.73;3.37;;;;;;;;;;5062998;27;89228;-62
2023/08/29 11:58:25;;;;;;;8.50;3.80;;;;;;;;;;5062859;27;88604;-62
2023/08/29 12:00:57;;;;;;;4.93;3.23;;;;;;;;;;5062033;27;87539;-62
2023/08/29 12:03:26;;;;;;;5.47;4.00;;;;;;;;;;5061372;27;89703;-62
2023/08/29 12:05:57;;;;;;;8.00;3.73;;;;;;;;;;5061558;27;89033;-62
2023/08/29 12:08:36;;;;;;;6.47;3.90;;;;;;;;;;5059528;27;87774;-62
2023/08/29 12:11:07;;;;;;;5.50;2.90;;;;;;;;;;5058573;27;87473;-62
2023/08/29 12:13:37;;;;;;;5.53;3.43;;;;;;;;;;5062194;27;89603;-62
2023/08/29 12:16:16;;;;;;;8.53;3.90;;;;;;;;;;5061545;27;89653;-62
2023/08/29 12:18:44;;;;;;;6.70;3.87;;;;;;;;;;5062141;27;89868;-62
2023/08/29 12:21:13;;;;;;;7.83;4.17;;;;;;;;;;5062709;27;87379;-62
2023/08/29 12:23:43;;;;;;;5.57;3.57;;;;;;;;;;5062280;27;89436;-62
2023/08/29 12:26:12;;;;;;;6.60;4.00;;;;;;;;;;5061786;27;87949;-62
2023/08/29 12:28:41;;;;;;;7.77;3.80;;;;;;;;;;5061871;27;88178;-62
2023/08/29 12:31:11;;;;;;;5.93;3.90;;;;;;;;;;5061961;27;87636;-62
2023/08/29 12:33:41;;;;;;;7.07;3.77;;;;;;;;;;5062225;27;88862;-62
2023/08/29 12:36:09;;;;;;;6.20;4.07;;;;;;;;;;5061259;27;88835;-62
2023/08/29 12:38:38;;;;;;;5.70;3.47;;;;;;;;;;5062257;27;90894;-62
2023/08/29 12:41:09;;;;;;;4.17;3.40;;;;;;;;;;5061234;27;87870;-62
2023/08/29 12:43:37;;;;;;;5.00;3.13;;;;;;;;;;5060569;27;89657;-63
2023/08/29 12:46:06;;;;;;;6.17;3.57;;;;;;;;;;5061679;27;87690;-62
2023/08/29 12:48:37;;;;;;;5.90;3.10;;;;;;;;;;5060539;27;87800;-62
2023/08/29 12:51:07;;;;;;;4.70;3.23;;;;;;;;;;5060423;27;89053;-59
2023/08/29 12:53:36;;;;;;;5.67;3.30;;;;;;;;;;5061713;27;90013;-59
2023/08/29 12:56:06;;;;;;;8.90;3.97;;;;;;;;;;5061079;27;89531;-60
2023/08/29 12:58:39;;;;;;;6.93;3.40;;;;;;;;;;5049471;27;88890;-60
2023/08/29 13:01:07;;;;;;;5.37;3.13;;;;;;;;;;5060478;27;87617;-59
2023/08/29 13:03:37;;;;;;;7.77;3.37;;;;;;;;;;5061018;27;89859;-59
2023/08/29 13:06:08;;;;;;;4.57;2.90;;;;;;;;;;5060845;27;90068;-59
2023/08/29 13:08:36;;;;;;;6.67;2.50;;;;;;;;;;5061354;27;89926;-59
2023/08/29 13:11:05;;;;;;;7.03;3.03;;;;;;;;;;5060884;27;87567;-59
2023/08/29 13:13:34;;;;;;;3.23;2.47;;;;;;;;;;5061892;27;88712;-59
2023/08/29 13:16:04;;;;;;;5.73;2.47;;;;;;;;;;5061392;27;89269;-59
2023/08/29 13:18:32;;;;;;;6.07;2.90;;;;;;;;;;5061234;27;87736;-59
2023/08/29 13:21:04;;;;;;;5.70;2.47;;;;;;;;;;5061823;27;87542;-59
2023/08/29 13:23:34;;;;;;;6.90;2.67;;;;;;;;;;5061571;27;87333;-59
2023/08/29 13:26:03;;;;;;;4.77;2.73;;;;;;;;;;5061431;27;89283;-58
2023/08/29 13:28:32;;;;;;;5.17;2.00;;;;;;;;;;5061734;27;87365;-60
2023/08/29 13:31:00;;;;;;;4.63;2.60;;;;;;;;;;5047118;27;88033;-58
2023/08/29 13:33:29;;;;;;;3.00;2.13;;;;;;;;;;5055841;27;88369;-58
2023/08/29 13:35:57;;;;;;;3.20;1.90;;;;;;;;;;5057372;27;89129;-58
2023/08/29 13:38:27;;;;;;;2.97;2.30;;;;;;;;;;5040331;27;88817;-58
2023/08/29 13:40:56;;;;;;;3.47;2.37;;;;;;;;;;5040832;28;88570;-57
2023/08/29 13:43:24;;;;;;;4.83;2.70;;;;;;;;;;5037957;28;88528;-57
2023/08/29 13:45:54;;;;;;;5.03;2.60;;;;;;;;;;5040353;28;89461;-57
2023/08/29 13:48:23;;;;;;;5.70;2.80;;;;;;;;;;5039149;27;87778;-60
2023/08/29 13:50:53;;;;;;;6.07;3.23;;;;;;;;;;5041242;27;87574;-61
2023/08/29 13:53:25;;;;;;;2.90;2.30;;;;;;;;;;5040531;27;89725;-59
2023/08/29 13:55:55;;;;;;;2.67;2.27;;;;;;;;;;5033802;27;89985;-59
2023/08/29 13:58:24;;;;;;;2.73;2.27;;;;;;;;;;5032453;27;89882;-60
2023/08/29 14:00:53;;;;;;;4.23;2.17;;;;;;;;;;5036988;27;87838;-62
2023/08/29 14:03:22;;;;;;;5.50;2.30;;;;;;;;;;5039828;27;89724;-61
2023/08/29 14:06:09;;;;;;;4.03;2.73;;;;;;;;;;5060781;27;89038;-62
2023/08/29 14:08:37;;;;;;;3.63;2.70;;;;;;;;;;5048843;27;88477;-61
2023/08/29 14:11:07;;;;;;;5.23;2.70;;;26.90;48.30;;;;;;5053903;27;87582;-61
2023/08/29 14:13:35;;;;;;;4.77;2.33;;;27.00;49.60;;;;;;5054290;27;88364;-61
2023/08/29 14:16:04;;;;;;;2.43;2.07;;;27.00;48.90;;;;;;5035969;27;88330;-62
2023/08/29 14:18:33;;;;;;;7.43;2.17;;;27.00;49.00;;;;;;5054498;27;90944;-61
2023/08/29 14:21:02;;;;;;;2.13;1.67;;;27.10;49.00;;;;;;5050658;27;90399;-61
2023/08/29 14:23:30;;;;;;;3.20;2.13;;;27.10;49.00;;;;;;5054543;27;87585;-61
2023/08/29 14:25:58;;;;;;;3.00;2.17;;;27.10;48.90;;;;;;5048987;27;89373;-61
2023/08/29 14:28:28;;;;;;;4.83;2.27;;;27.10;48.90;;;;;;5022106;27;90915;-61
2023/08/29 14:30:56;;;;;;;3.10;2.03;;;27.20;48.90;;;;;;5044187;27;87180;-62
2023/08/29 14:33:25;;;;;;;3.67;1.90;;;27.10;48.90;;;;;;5034417;27;89843;-62
2023/08/29 14:35:56;;;;;;;2.23;1.73;;;27.10;48.90;;;;;;5043560;27;88982;-62
2023/08/29 14:38:24;;;;;;;3.70;1.93;;;27.20;48.90;;;;;;5059114;27;88867;-59
2023/08/29 14:40:52;;;;;;;3.30;2.07;;;27.20;49.60;;;;;;5056587;27;87449;-61
2023/08/29 14:43:20;;;;;;;5.53;1.73;;;27.20;48.90;;;;;;5054353;27;89049;-61
2023/08/29 14:45:50;;;;;;;3.10;1.33;;;27.20;48.90;;;;;;5022107;27;91015;-61
2023/08/29 14:48:18;;;;;;;2.83;1.80;;;27.20;48.90;;;;;;5050790;27;90574;-62
2023/08/29 14:50:47;;;;;;;1.37;1.27;;;27.20;48.90;;;;;;5060056;27;87376;-61
2023/08/29 14:53:15;;;;;;;3.13;1.63;;;27.20;48.80;;;;;;5059596;27;88573;-61
2023/08/29 14:55:43;;;;;;;2.60;1.53;;;27.20;48.80;;;;;;5056595;27;89129;-61